Time;durP1;ratioP1;P1;durP2;ratioP2;P2;SDS_P1;SDS_P2;PMS_P1;PMS_P2;Temp;Humidity;BMP_temperature;BMP_pressure;BME280_temperature;BME280_humidity;BME280_pressure;Samples;Min_cycle;Max_cycle;Signal;HPM_P1;HPM_P2
2021/01/13 00:02:16;;;;;;;50.65;13.55;;;2.40;91.70;;;;;;5038450;28;20036;-92
2021/01/13 00:04:41;;;;;;;46.60;12.45;;;2.30;91.40;;;;;;5034657;28;20030;-92
2021/01/13 00:07:07;;;;;;;42.33;12.52;;;2.30;91.60;;;;;;5040655;28;20112;-92
2021/01/13 00:09:32;;;;;;;42.55;11.85;;;2.30;91.40;;;;;;5014825;28;20045;-91
2021/01/13 00:11:58;;;;;;;35.95;11.07;;;2.30;91.30;;;;;;5006227;28;20072;-91
2021/01/13 00:14:27;;;;;;;41.47;11.90;;;2.30;91.40;;;;;;5006678;28;20022;-91
2021/01/13 00:16:53;;;;;;;42.20;11.82;;;2.20;91.40;;;;;;5026279;28;20083;-91
2021/01/13 00:19:19;;;;;;;40.72;11.32;;;2.20;91.50;;;;;;5029988;28;20028;-91
2021/01/13 00:21:52;;;;;;;42.50;12.07;;;2.20;91.50;;;;;;5004491;28;20034;-91
2021/01/13 00:24:19;;;;;;;35.95;10.55;;;2.20;91.50;;;;;;5005881;28;20045;-91
2021/01/13 00:26:45;;;;;;;36.38;11.73;;;2.20;91.50;;;;;;4997838;28;20097;-91
2021/01/13 00:29:12;;;;;;;42.70;10.70;;;2.30;91.60;;;;;;5011933;28;20068;-91
2021/01/13 00:31:38;;;;;;;40.40;10.93;;;2.30;91.50;;;;;;5005249;28;20026;-91
2021/01/13 00:34:08;;;;;;;41.22;11.38;;;2.30;91.50;;;;;;5017599;28;20496;-92
2021/01/13 00:36:54;;;;;;;36.00;10.45;;;2.30;91.40;;;;;;5015382;28;20052;-91
2021/01/13 00:39:20;;;;;;;46.13;10.57;;;2.30;91.50;;;;;;5024597;28;20030;-92
2021/01/13 00:41:46;;;;;;;39.63;10.18;;;2.30;91.40;;;;;;5032819;28;20032;-92
2021/01/13 00:44:13;;;;;;;30.23;9.80;;;2.30;91.40;;;;;;5015369;28;20025;-91
2021/01/13 00:46:44;;;;;;;32.80;10.43;;;2.30;91.40;;;;;;5012636;28;20021;-91
2021/01/13 00:49:11;;;;;;;35.45;9.48;;;2.30;91.40;;;;;;5009946;28;20484;-92
2021/01/13 00:51:43;;;;;;;30.00;9.82;;;2.30;91.40;;;;;;5005502;28;20041;-92
2021/01/13 00:54:11;;;;;;;41.30;11.25;;;2.30;91.30;;;;;;5012771;28;20025;-91
2021/01/13 00:56:43;;;;;;;26.08;8.15;;;2.30;91.40;;;;;;5032013;28;20033;-92
2021/01/13 00:59:10;;;;;;;23.80;8.20;;;2.30;91.40;;;;;;5019910;28;20022;-92
2021/01/13 01:01:36;;;;;;;23.08;7.95;;;2.30;91.40;;;;;;5008376;28;20033;-92
2021/01/13 01:04:04;;;;;;;27.05;8.20;;;2.20;91.40;;;;;;5004659;28;20080;-92
2021/01/13 01:06:29;;;;;;;26.73;7.80;;;2.20;91.40;;;;;;5013533;28;20041;-92
2021/01/13 01:08:55;;;;;;;32.97;8.27;;;2.10;91.40;;;;;;4997005;28;20423;-92
2021/01/13 01:11:27;;;;;;;20.55;7.28;;;2.20;91.50;;;;;;5005309;28;20076;-92
2021/01/13 01:13:53;;;;;;;;;;;2.10;91.50;;;;;;5009432;28;20044;-91
2021/01/13 01:16:19;;;;;;;23.38;7.90;;;2.10;91.50;;;;;;5009806;28;19920;-92
2021/01/13 01:18:45;;;;;;;20.45;8.23;;;2.10;91.40;;;;;;5016428;28;20086;-92
2021/01/13 01:21:10;;;;;;;20.92;7.93;;;2.00;91.40;;;;;;5004256;28;20069;-91
2021/01/13 01:23:36;;;;;;;23.02;8.18;;;2.00;91.40;;;;;;5001672;28;20159;-91
2021/01/13 01:26:04;;;;;;;28.77;9.25;;;2.00;91.50;;;;;;5008573;28;20029;-93
2021/01/13 01:28:30;;;;;;;21.48;7.60;;;2.00;91.50;;;;;;5018141;28;20026;-93
2021/01/13 01:30:55;;;;;;;27.67;7.70;;;2.00;91.50;;;;;;5012908;28;20029;-92
2021/01/13 01:33:21;;;;;;;26.40;7.07;;;2.00;91.60;;;;;;5016734;28;20028;-92
2021/01/13 01:35:47;;;;;;;20.88;7.70;;;2.00;91.60;;;;;;5015157;28;20038;-92
2021/01/13 01:38:13;;;;;;;24.30;8.70;;;2.00;91.60;;;;;;5009480;28;20038;-92
2021/01/13 01:40:38;;;;;;;33.00;8.30;;;2.00;91.70;;;;;;5004978;28;20559;-92
2021/01/13 01:43:04;;;;;;;23.23;8.90;;;2.00;91.50;;;;;;5000705;28;20030;-93
2021/01/13 01:45:31;;;;;;;28.33;9.73;;;2.00;91.50;;;;;;5023862;28;20108;-92
2021/01/13 01:48:00;;;;;;;27.92;7.97;;;2.00;91.50;;;;;;5015791;28;20086;-92
2021/01/13 01:50:31;;;;;;;22.48;7.25;;;1.90;91.50;;;;;;5017043;28;20033;-92
2021/01/13 01:53:05;;;;;;;28.40;8.23;;;1.90;91.60;;;;;;5010730;28;20022;-92
2021/01/13 01:55:48;;;;;;;22.60;7.03;;;1.90;91.60;;;;;;5015179;28;20034;-91
2021/01/13 01:58:24;;;;;;;27.02;7.45;;;1.90;91.50;;;;;;5029135;28;20088;-92
2021/01/13 02:00:53;;;;;;;25.23;7.00;;;1.90;91.50;;;;;;5012635;28;20033;-92
2021/01/13 02:03:22;;;;;;;26.52;8.90;;;1.80;91.50;;;;;;4998369;28;20048;-91
2021/01/13 02:05:53;;;;;;;23.10;7.68;;;1.80;91.50;;;;;;5007511;28;20084;-91
2021/01/13 02:08:22;;;;;;;23.02;10.15;;;1.80;91.50;;;;;;5010325;28;20026;-92
2021/01/13 02:10:48;;;;;;;25.38;7.68;;;1.80;91.50;;;;;;4999691;28;20197;-91
2021/01/13 02:13:15;;;;;;;23.90;8.05;;;1.80;91.50;;;;;;5010283;28;20149;-92
2021/01/13 02:15:41;;;;;;;32.33;8.20;;;1.80;91.50;;;;;;5010475;28;20492;-92
2021/01/13 02:18:09;;;;;;;28.42;8.65;;;1.70;91.50;;;;;;4996924;28;20041;-91
2021/01/13 02:20:39;;;;;;;24.35;7.03;;;1.70;91.50;;;;;;5007798;28;20119;-92
2021/01/13 02:23:19;;;;;;;28.40;7.93;;;1.70;91.50;;;;;;4999922;28;20069;-92
2021/01/13 02:26:16;;;;;;;18.67;7.05;;;1.70;91.50;;;;;;5001825;28;20053;-92
2021/01/13 02:29:07;;;;;;;24.25;8.02;;;1.70;91.50;;;;;;5018109;28;20071;-92
2021/01/13 02:31:54;;;;;;;20.42;7.32;;;1.70;91.50;;;;;;5002549;28;20503;-92
2021/01/13 02:34:38;;;;;;;20.92;6.88;;;1.60;91.50;;;;;;5016621;28;20025;-92
2021/01/13 02:37:19;;;;;;;19.70;7.75;;;1.70;91.60;;;;;;5004461;28;20030;-92
2021/01/13 02:39:45;;;;;;;21.63;7.15;;;1.60;91.60;;;;;;5003944;28;20034;-92
2021/01/13 02:42:21;;;;;;;22.23;7.63;;;1.60;91.60;;;;;;5016754;28;20083;-93
2021/01/13 02:45:32;;;;;;;19.23;8.10;;;1.60;91.60;;;;;;5005633;28;20036;-92
2021/01/13 02:48:13;;;;;;;20.38;7.68;;;1.70;91.60;;;;;;4975982;28;20023;-92
2021/01/13 02:50:52;;;;;;;22.45;7.82;;;1.60;91.50;;;;;;5004009;28;20164;-91
2021/01/13 02:53:17;;;;;;;25.52;7.63;;;1.60;91.50;;;;;;5004877;28;20068;-91
2021/01/13 02:55:46;;;;;;;27.73;8.02;;;1.60;91.50;;;;;;5013208;28;20152;-91
2021/01/13 02:58:18;;;;;;;24.98;7.78;;;1.60;91.50;;;;;;5014045;28;20052;-92
2021/01/13 03:00:44;;;;;;;;;;;1.60;91.50;;;;;;5014590;28;20413;-91
2021/01/13 03:03:10;;;;;;;21.27;7.80;;;1.60;91.50;;;;;;5009454;28;20015;-92
2021/01/13 03:05:36;;;;;;;27.02;8.05;;;1.50;91.40;;;;;;5007530;28;20071;-92
2021/01/13 03:08:06;;;;;;;23.67;8.35;;;1.50;91.40;;;;;;5014354;28;20492;-91
2021/01/13 03:10:36;;;;;;;22.05;8.38;;;1.50;91.50;;;;;;5000183;28;20122;-91
2021/01/13 03:13:04;;;;;;;23.25;8.45;;;1.50;91.50;;;;;;5016323;28;20044;-92
2021/01/13 03:15:33;;;;;;;26.17;8.80;;;1.50;91.60;;;;;;5011334;28;20129;-91
2021/01/13 03:18:06;;;;;;;23.70;9.40;;;1.50;91.50;;;;;;5001505;28;20088;-91
2021/01/13 03:20:49;;;;;;;27.35;8.98;;;1.40;91.50;;;;;;5013780;28;20032;-91
2021/01/13 03:23:35;;;;;;;37.03;11.32;;;1.40;91.40;;;;;;5029038;28;20036;-92
2021/01/13 03:26:05;;;;;;;34.75;9.90;;;1.40;91.50;;;;;;5004834;28;20026;-91
2021/01/13 03:28:34;;;;;;;20.58;8.70;;;1.40;91.60;;;;;;5008753;28;20034;-91
2021/01/13 03:31:01;;;;;;;25.70;8.65;;;1.30;91.50;;;;;;5017308;28;20021;-91
2021/01/13 03:34:05;;;;;;;36.75;9.93;;;1.30;91.60;;;;;;5017112;28;20021;-92
2021/01/13 03:36:52;;;;;;;38.13;8.93;;;1.30;91.60;;;;;;5017778;28;20061;-91
2021/01/13 03:39:21;;;;;;;20.65;8.20;;;1.30;91.60;;;;;;5028968;28;20483;-91
2021/01/13 03:41:53;;;;;;;34.25;10.15;;;1.30;91.60;;;;;;5026183;28;20402;-91
2021/01/13 03:44:28;;;;;;;40.35;9.00;;;1.30;91.60;;;;;;5000492;28;20443;-91
2021/01/13 03:46:55;;;;;;;30.67;8.52;;;1.30;91.90;;;;;;5013663;28;20083;-91
2021/01/13 03:49:27;;;;;;;35.42;8.57;;;1.30;91.70;;;;;;5006211;28;20018;-91
2021/01/13 03:52:01;;;;;;;22.10;7.80;;;1.30;91.60;;;;;;5008173;28;20022;-91
2021/01/13 03:54:34;;;;;;;22.20;8.13;;;1.30;91.70;;;;;;5000819;28;20022;-91
2021/01/13 03:57:07;;;;;;;29.70;8.95;;;1.30;91.70;;;;;;5001154;28;20026;-91
2021/01/13 03:59:53;;;;;;;20.98;7.45;;;1.30;91.60;;;;;;5020980;28;20033;-91
2021/01/13 04:02:24;;;;;;;31.17;9.05;;;1.30;91.60;;;;;;5017592;28;20033;-92
2021/01/13 04:05:16;;;;;;;22.55;7.72;;;1.30;91.60;;;;;;5015099;28;20080;-92
2021/01/13 04:07:43;;;;;;;25.42;8.30;;;1.30;91.70;;;;;;5004702;28;20018;-91
2021/01/13 04:10:15;;;;;;;25.40;7.63;;;1.30;91.60;;;;;;5016319;28;20022;-91
2021/01/13 04:12:57;;;;;;;19.92;6.85;;;1.30;91.60;;;;;;5007276;28;20022;-91
2021/01/13 04:15:43;;;;;;;35.67;7.82;;;1.30;91.70;;;;;;5028408;28;20031;-91
2021/01/13 04:18:10;;;;;;;18.23;6.85;;;1.30;91.60;;;;;;5022144;28;20045;-91
2021/01/13 04:20:37;;;;;;;25.48;6.90;;;1.20;91.50;;;;;;5013323;28;20044;-91
2021/01/13 04:23:06;;;;;;;25.40;6.55;;;1.20;91.60;;;;;;5010101;28;20026;-91
2021/01/13 04:25:32;;;;;;;19.73;6.75;;;1.20;91.60;;;;;;5002233;28;20037;-91
2021/01/13 04:27:58;;;;;;;17.45;6.55;;;1.30;91.60;;;;;;5021767;28;20025;-91
2021/01/13 04:30:27;;;;;;;20.48;6.55;;;1.20;91.60;;;;;;5016657;28;20022;-91
2021/01/13 04:32:56;;;;;;;16.33;5.75;;;1.20;91.50;;;;;;4999930;28;20026;-92
2021/01/13 04:35:26;;;;;;;11.93;6.13;;;1.20;91.60;;;;;;5002925;28;20030;-91
2021/01/13 04:37:54;;;;;;;21.27;6.10;;;1.20;91.60;;;;;;5000907;28;20034;-91
2021/01/13 04:40:36;;;;;;;21.42;6.35;;;1.20;91.80;;;;;;5014510;28;20468;-91
2021/01/13 04:43:12;;;;;;;22.38;7.88;;;1.20;91.70;;;;;;5009527;28;20049;-91
2021/01/13 04:45:44;;;;;;;23.17;6.72;;;1.20;91.70;;;;;;5013096;28;20096;-91
2021/01/13 04:48:13;;;;;;;22.95;6.35;;;1.20;91.70;;;;;;5012669;28;20087;-91
2021/01/13 04:50:43;;;;;;;18.20;5.80;;;1.20;91.60;;;;;;5017872;28;20578;-91
2021/01/13 04:53:22;;;;;;;22.08;6.22;;;1.20;91.70;;;;;;5009374;28;20022;-90
2021/01/13 04:55:55;;;;;;;15.65;5.38;;;1.20;91.70;;;;;;5008292;28;20022;-91
2021/01/13 04:58:21;;;;;;;28.00;5.90;;;1.20;91.60;;;;;;5018467;28;20036;-91
2021/01/13 05:01:18;;;;;;;22.55;5.22;;;1.20;91.60;;;;;;5003674;28;20029;-91
2021/01/13 05:04:00;;;;;;;17.58;5.50;;;1.20;91.60;;;;;;5019577;28;20045;-91
2021/01/13 05:06:48;;;;;;;12.90;5.07;;;1.20;91.60;;;;;;5016721;28;20034;-92
2021/01/13 05:09:16;;;;;;;15.27;5.43;;;1.20;91.60;;;;;;5012745;28;20026;-91
2021/01/13 05:11:46;;;;;;;20.40;5.18;;;1.10;91.50;;;;;;5006444;28;20048;-91
2021/01/13 05:14:13;;;;;;;18.77;5.78;;;1.10;91.50;;;;;;5014498;28;20032;-92
2021/01/13 05:16:48;;;;;;;14.68;6.05;;;1.10;91.50;;;;;;5013513;28;20037;-91
2021/01/13 05:19:31;;;;;;;17.05;5.70;;;1.00;91.50;;;;;;5000897;28;20033;-91
2021/01/13 05:21:59;;;;;;;17.58;5.80;;;1.00;91.50;;;;;;5018156;28;20022;-91
2021/01/13 05:24:26;;;;;;;27.05;7.15;;;1.00;91.60;;;;;;5016510;28;20032;-91
2021/01/13 05:27:03;;;;;;;18.70;7.18;;;1.00;91.50;;;;;;5016552;28;20057;-91
2021/01/13 05:29:37;;;;;;;20.67;6.40;;;1.00;91.60;;;;;;5040007;28;20496;-91
2021/01/13 05:32:06;;;;;;;16.23;5.45;;;1.00;91.70;;;;;;5029803;28;20442;-91
2021/01/13 05:34:34;;;;;;;24.50;6.25;;;1.00;91.70;;;;;;5019204;28;20035;-91
2021/01/13 05:37:18;;;;;;;21.05;6.40;;;1.00;91.70;;;;;;5001840;28;20040;-91
2021/01/13 05:39:50;;;;;;;18.13;5.78;;;1.00;91.60;;;;;;5002419;28;20022;-91
2021/01/13 05:42:18;;;;;;;25.10;5.78;;;1.00;91.60;;;;;;5005392;28;20032;-90
2021/01/13 05:44:45;;;;;;;22.02;5.90;;;1.00;91.60;;;;;;5004162;28;20412;-90
2021/01/13 05:47:47;;;;;;;20.48;6.43;;;0.90;91.60;;;;;;4998500;28;20030;-91
2021/01/13 05:50:17;;;;;;;21.65;9.10;;;0.90;91.60;;;;;;5028054;28;20054;-91
2021/01/13 05:52:46;;;;;;;27.70;7.18;;;0.90;91.60;;;;;;5012996;28;20534;-91
2021/01/13 05:55:13;;;;;;;20.15;7.03;;;0.90;91.70;;;;;;5016553;28;20029;-90
2021/01/13 05:57:52;;;;;;;25.17;8.23;;;0.90;91.70;;;;;;5052120;23;20051;-68
2021/01/13 06:00:18;;;;;;;23.30;6.70;;;0.90;91.60;;;;;;5038908;28;20032;-68
2021/01/13 06:02:47;;;;;;;21.58;6.53;;;0.90;91.60;;;;;;5029093;28;20507;-69
2021/01/13 06:05:13;;;;;;;23.17;7.20;;;0.90;91.70;;;;;;5028794;28;20048;-67
2021/01/13 06:07:42;;;;;;;19.45;7.38;;;0.90;91.80;;;;;;5030323;28;20025;-67
2021/01/13 06:10:08;;;;;;;29.52;7.72;;;0.90;91.70;;;;;;5029072;28;20109;-68
2021/01/13 06:12:45;;;;;;;17.27;6.85;;;0.90;91.70;;;;;;5026982;28;20022;-69
2021/01/13 06:15:12;;;;;;;22.05;6.60;;;0.90;91.60;;;;;;5029002;28;20025;-66
2021/01/13 06:17:49;;;;;;;22.58;6.75;;;0.90;91.60;;;;;;5032047;28;20029;-67
2021/01/13 06:20:20;;;;;;;18.20;6.25;;;0.90;91.90;;;;;;5030684;28;20017;-69
2021/01/13 06:22:48;;;;;;;21.48;6.95;;;0.90;91.70;;;;;;5033038;28;20037;-68
2021/01/13 06:25:26;;;;;;;19.23;8.25;;;0.90;91.70;;;;;;5026543;28;20033;-69
2021/01/13 06:27:57;;;;;;;23.73;7.07;;;0.90;91.70;;;;;;5026732;28;20771;-69
2021/01/13 06:30:28;;;;;;;25.05;7.53;;;0.90;91.70;;;;;;5033078;28;20061;-69
2021/01/13 06:33:02;;;;;;;17.67;6.90;;;0.90;91.70;;;;;;5045498;28;20021;-69
2021/01/13 06:35:42;;;;;;;14.15;6.82;;;0.90;91.70;;;;;;5036220;28;20068;-69
2021/01/13 06:38:18;;;;;;;20.45;7.32;;;0.90;91.70;;;;;;5033152;28;20053;-69
2021/01/13 06:40:43;;;;;;;28.73;8.35;;;0.90;91.70;;;;;;5031921;28;20489;-68
2021/01/13 06:43:13;;;;;;;22.83;7.57;;;0.90;91.70;;;;;;5028728;28;20044;-68
2021/01/13 06:45:39;;;;;;;26.70;7.72;;;0.90;91.70;;;;;;5029565;28;20051;-68
2021/01/13 06:48:05;;;;;;;24.83;7.30;;;0.90;91.60;;;;;;5031643;28;20033;-68
2021/01/13 06:50:35;;;;;;;21.27;7.22;;;0.90;91.70;;;;;;5028696;28;20030;-68
2021/01/13 06:53:05;;;;;;;20.38;8.13;;;0.90;91.90;;;;;;5029419;28;20362;-66
2021/01/13 06:55:33;;;;;;;23.27;9.60;;;0.90;91.80;;;;;;5032927;28;20048;-68
2021/01/13 06:58:14;;;;;;;24.75;7.82;;;0.90;91.80;;;;;;5041922;28;20046;-67
2021/01/13 07:00:41;;;;;;;25.83;10.75;;;0.90;91.70;;;;;;5033450;28;20025;-68
2021/01/13 07:03:29;;;;;;;27.85;9.73;;;0.90;91.70;;;;;;5033019;28;20033;-68
2021/01/13 07:06:11;;;;;;;21.30;8.07;;;0.90;91.80;;;;;;5029266;28;20017;-68
2021/01/13 07:08:37;;;;;;;20.98;8.23;;;0.90;91.80;;;;;;5027685;28;20052;-68
2021/01/13 07:11:08;;;;;;;18.73;7.75;;;0.90;91.80;;;;;;5031753;28;20104;-68
2021/01/13 07:13:40;;;;;;;22.25;8.32;;;0.90;91.80;;;;;;5032829;28;20080;-68
2021/01/13 07:16:08;;;;;;;21.15;7.70;;;0.90;91.70;;;;;;5031286;28;20497;-68
2021/01/13 07:18:35;;;;;;;20.75;7.63;;;1.00;91.80;;;;;;5029778;28;20041;-68
2021/01/13 07:21:08;;;;;;;19.17;8.20;;;1.00;91.70;;;;;;5030403;28;20033;-68
2021/01/13 07:23:36;;;;;;;22.27;8.63;;;1.00;91.70;;;;;;5031556;28;20404;-68
2021/01/13 07:26:02;;;;;;;20.45;7.93;;;1.00;91.70;;;;;;5032364;28;20029;-69
2021/01/13 07:28:29;;;;;;;22.95;8.85;;;1.00;91.60;;;;;;5029574;28;20026;-69
2021/01/13 07:30:56;;;;;;;25.83;8.77;;;1.00;91.70;;;;;;5032015;28;20018;-68
2021/01/13 07:33:26;;;;;;;22.83;9.52;;;1.00;91.70;;;;;;5032586;28;20036;-68
2021/01/13 07:35:54;;;;;;;23.63;9.02;;;1.00;91.60;;;;;;5031339;28;20030;-68
2021/01/13 07:38:21;;;;;;;23.73;9.68;;;1.00;91.50;;;;;;5030779;28;20037;-68
2021/01/13 07:41:07;;;;;;;32.55;10.43;;;1.00;91.60;;;;;;5031676;28;20036;-68
2021/01/13 07:43:51;;;;;;;26.00;9.93;;;1.00;91.60;;;;;;5031674;28;20063;-68
2021/01/13 07:46:30;;;;;;;35.28;11.63;;;1.00;91.50;;;;;;5028596;28;20033;-68
2021/01/13 07:49:16;;;;;;;33.10;10.73;;;1.00;91.40;;;;;;5031110;28;20033;-68
2021/01/13 07:51:52;;;;;;;27.52;9.88;;;1.00;91.60;;;;;;5030325;28;20021;-69
2021/01/13 07:54:33;;;;;;;26.55;10.23;;;0.90;91.50;;;;;;5030325;28;20389;-68
2021/01/13 07:57:04;;;;;;;25.55;9.43;;;0.90;91.60;;;;;;5032398;28;20443;-68
2021/01/13 07:59:39;;;;;;;32.58;9.93;;;0.90;91.60;;;;;;5039405;28;20079;-68
2021/01/13 08:02:43;;;;;;;33.58;9.98;;;0.90;91.60;;;;;;5032318;28;20133;-68
2021/01/13 08:05:21;;;;;;;32.53;8.85;;;1.00;91.70;;;;;;5030382;28;20029;-68
2021/01/13 08:08:09;;;;;;;23.65;8.75;;;0.90;91.70;;;;;;5019296;28;20554;-68
2021/01/13 08:10:36;;;;;;;26.90;9.95;;;1.10;91.70;;;;;;5031501;28;20026;-68
2021/01/13 08:13:39;;;;;;;27.00;9.82;;;1.10;91.60;;;;;;5029848;28;20474;-68
2021/01/13 08:16:29;;;;;;;23.50;9.20;;;1.10;91.50;;;;;;5030062;28;20029;-68
2021/01/13 08:19:15;;;;;;;28.13;9.82;;;1.20;91.50;;;;;;5029555;28;20095;-68
2021/01/13 08:21:44;;;;;;;35.50;11.07;;;1.20;91.40;;;;;;5030208;28;20021;-69
2021/01/13 08:25:00;;;;;;;36.85;11.23;;;1.20;91.40;;;;;;5028450;28;20041;-68
2021/01/13 08:27:02;;;;;;;45.65;13.43;;;1.20;91.40;;;;;;5022449;28;20045;-68
2021/01/13 08:29:39;;;;;;;31.38;11.55;;;1.30;91.40;;;;;;5030285;28;20030;-68
2021/01/13 08:32:09;;;;;;;26.13;9.93;;;1.30;91.30;;;;;;5028198;28;20021;-68
2021/01/13 08:34:44;;;;;;;27.02;9.68;;;1.40;91.50;;;;;;5029287;28;20225;-68
2021/01/13 08:37:11;;;;;;;31.70;10.20;;;1.40;91.40;;;;;;5029573;28;20032;-68
2021/01/13 08:39:43;;;;;;;23.25;9.73;;;1.40;91.40;;;;;;5030394;28;20040;-68
2021/01/13 08:42:24;;;;;;;29.27;10.77;;;1.40;91.40;;;;;;5032730;28;20017;-69
2021/01/13 08:44:52;;;;;;;37.10;10.75;;;1.40;91.40;;;;;;5041618;28;20021;-69
2021/01/13 08:47:18;;;;;;;34.95;12.60;;;1.40;91.30;;;;;;5029934;28;20358;-69
2021/01/13 08:49:43;;;;;;;28.52;10.18;;;1.40;91.20;;;;;;5028722;28;20026;-69
2021/01/13 08:52:19;;;;;;;30.90;11.27;;;1.50;91.20;;;;;;5030748;28;20021;-69
2021/01/13 08:55:05;;;;;;;35.00;12.30;;;1.50;91.20;;;;;;5025492;28;20037;-70
2021/01/13 08:57:53;;;;;;;36.35;12.20;;;1.50;91.30;;;;;;5029980;28;20073;-69
2021/01/13 09:00:21;;;;;;;29.83;11.13;;;1.50;91.30;;;;;;5027418;28;20060;-69
2021/01/13 09:03:00;;;;;;;31.75;12.60;;;1.50;91.50;;;;;;5030028;28;20501;-69
2021/01/13 09:05:40;;;;;;;34.15;11.43;;;1.50;91.20;;;;;;5027801;28;20112;-70
2021/01/13 09:08:10;;;;;;;32.42;11.75;;;1.50;91.40;;;;;;5030211;28;20025;-69
2021/01/13 09:10:45;;;;;;;35.50;13.20;;;1.50;91.30;;;;;;5029114;28;20025;-69
2021/01/13 09:13:30;;;;;;;30.60;11.85;;;1.60;91.30;;;;;;5030862;28;20057;-69
2021/01/13 09:15:56;;;;;;;34.65;11.57;;;1.60;91.30;;;;;;5027241;28;20032;-69
2021/01/13 09:18:23;;;;;;;27.05;11.27;;;1.60;91.30;;;;;;5026103;28;20064;-69
2021/01/13 09:20:49;;;;;;;30.58;11.07;;;1.70;91.30;;;;;;5027548;28;20440;-69
2021/01/13 09:23:22;;;;;;;34.47;11.68;;;1.70;91.30;;;;;;5029738;28;20096;-69
2021/01/13 09:25:55;;;;;;;32.25;11.32;;;1.70;91.30;;;;;;5028119;28;20025;-70
2021/01/13 09:28:21;;;;;;;33.85;11.05;;;1.70;91.30;;;;;;5030598;28;20048;-69
2021/01/13 09:30:47;;;;;;;27.63;12.43;;;1.70;91.40;;;;;;5026661;28;20025;-70
2021/01/13 09:33:18;;;;;;;27.88;12.15;;;1.80;91.30;;;;;;5038879;28;20021;-70
2021/01/13 09:35:48;;;;;;;25.35;10.55;;;1.70;91.20;;;;;;5026040;28;20104;-70
2021/01/13 09:38:16;;;;;;;25.30;10.23;;;1.70;91.20;;;;;;5030947;28;20021;-70
2021/01/13 09:41:01;;;;;;;24.13;11.05;;;1.80;91.30;;;;;;5030036;28;20071;-67
2021/01/13 09:43:33;;;;;;;27.98;10.90;;;1.80;91.60;;;;;;5029172;28;20433;-68
2021/01/13 09:46:19;;;;;;;;;;;1.80;91.30;;;;;;5029279;28;20071;-68
2021/01/13 09:49:04;;;;;;;23.17;9.43;;;1.90;91.40;;;;;;5028643;28;20002;-69
2021/01/13 09:51:30;;;;;;;22.08;10.25;;;1.90;91.20;;;;;;5025751;28;20041;-68
2021/01/13 09:53:58;;;;;;;32.78;10.02;;;1.90;91.30;;;;;;5029029;28;20025;-68
2021/01/13 09:56:25;;;;;;;26.88;10.40;;;1.90;91.20;;;;;;5022045;28;20025;-69
2021/01/13 09:58:52;;;;;;;21.92;10.02;;;1.90;91.20;;;;;;5030078;28;20022;-68
2021/01/13 10:01:23;;;;;;;25.35;10.45;;;1.90;91.20;;;;;;5029806;28;20077;-68
2021/01/13 10:03:50;;;;;;;27.07;8.97;;;1.90;91.20;;;;;;5030651;28;20029;-69
2021/01/13 10:06:22;;;;;;;18.15;8.90;;;1.90;91.30;;;;;;5027476;28;20021;-68
2021/01/13 10:08:49;;;;;;;22.07;9.70;;;2.00;91.40;;;;;;5029860;28;20033;-68
2021/01/13 10:11:16;;;;;;;18.80;8.95;;;2.00;91.30;;;;;;5031379;28;20048;-68
2021/01/13 10:13:44;;;;;;;25.60;9.85;;;2.00;91.30;;;;;;5029046;28;20022;-67
2021/01/13 10:16:12;;;;;;;29.15;10.73;;;2.10;91.20;;;;;;5027983;28;20025;-68
2021/01/13 10:18:52;;;;;;;23.98;8.30;;;2.10;91.30;;;;;;5031204;28;20049;-69
2021/01/13 10:21:19;;;;;;;20.35;8.52;;;2.20;91.30;;;;;;5027094;28;20125;-69
2021/01/13 10:23:46;;;;;;;16.02;8.40;;;2.20;91.20;;;;;;5029568;28;20521;-69
2021/01/13 10:26:12;;;;;;;22.77;9.20;;;2.40;91.30;;;;;;5027806;28;20040;-69
2021/01/13 10:28:39;;;;;;;20.75;8.80;;;2.40;91.10;;;;;;5031440;28;20045;-69
2021/01/13 10:31:07;;;;;;;19.27;8.77;;;2.40;91.00;;;;;;5042482;28;20025;-69
2021/01/13 10:33:42;;;;;;;17.52;8.48;;;2.40;90.90;;;;;;5030171;28;20052;-69
2021/01/13 10:36:09;;;;;;;21.30;9.95;;;2.40;90.90;;;;;;5028205;28;20127;-69
2021/01/13 10:38:37;;;;;;;20.73;9.15;;;2.40;90.90;;;;;;5019336;28;20030;-69
2021/01/13 10:41:04;;;;;;;18.00;9.13;;;2.40;90.80;;;;;;5021756;28;20067;-69
2021/01/13 10:43:33;;;;;;;22.55;8.85;;;2.30;90.90;;;;;;5029179;28;20033;-69
2021/01/13 10:46:00;;;;;;;23.20;9.27;;;2.30;90.90;;;;;;5029337;28;20112;-69
2021/01/13 10:48:26;;;;;;;28.60;9.70;;;2.30;91.00;;;;;;5028985;28;20028;-69
2021/01/13 10:50:57;;;;;;;23.95;9.18;;;2.30;91.00;;;;;;5027469;28;20100;-70
2021/01/13 10:53:32;;;;;;;20.23;10.05;;;2.30;91.00;;;;;;5028710;28;20197;-69
2021/01/13 10:56:07;;;;;;;20.48;10.32;;;2.30;91.00;;;;;;5029573;28;20028;-69
2021/01/13 10:58:36;;;;;;;25.10;10.00;;;2.40;91.00;;;;;;5028668;28;20037;-69
2021/01/13 11:01:05;;;;;;;23.92;10.02;;;2.40;91.00;;;;;;5028738;28;20025;-69
2021/01/13 11:03:34;;;;;;;23.38;10.02;;;2.30;91.00;;;;;;5027160;28;20068;-69
2021/01/13 11:06:00;;;;;;;20.83;9.43;;;2.40;91.00;;;;;;5032113;28;20494;-68
2021/01/13 11:08:29;;;;;;;30.80;13.82;;;2.40;91.00;;;;;;5032889;28;20516;-68
2021/01/13 11:11:06;;;;;;;37.45;17.08;;;2.30;90.90;;;;;;5029832;28;20087;-67
2021/01/13 11:13:42;;;;;;;22.38;9.68;;;2.40;91.10;;;;;;5026470;28;20052;-68
2021/01/13 11:16:08;;;;;;;30.65;12.88;;;2.40;91.10;;;;;;5019647;28;20351;-68
2021/01/13 11:18:36;;;;;;;31.58;11.82;;;2.40;91.10;;;;;;5024599;28;20095;-68
2021/01/13 11:21:08;;;;;;;30.77;12.50;;;2.50;91.20;;;;;;5024620;28;20120;-68
2021/01/13 11:23:45;;;;;;;39.65;14.13;;;2.50;91.10;;;;;;5031590;28;20022;-69
2021/01/13 11:26:12;;;;;;;30.50;10.00;;;2.50;91.10;;;;;;5031365;28;20029;-68
2021/01/13 11:28:39;;;;;;;21.15;9.98;;;2.60;91.00;;;;;;5031136;28;20083;-68
2021/01/13 11:31:05;;;;;;;25.40;10.95;;;2.60;91.10;;;;;;5030764;28;20703;-68
2021/01/13 11:33:31;;;;;;;21.88;10.60;;;2.60;91.10;;;;;;5032489;28;20108;-68
2021/01/13 11:35:57;;;;;;;21.58;9.75;;;2.60;91.10;;;;;;5031257;28;20040;-68
2021/01/13 11:38:52;;;;;;;16.23;9.00;;;2.70;91.10;;;;;;5031248;28;20049;-68
2021/01/13 11:41:46;;;;;;;19.45;8.30;;;2.70;91.00;;;;;;5022092;28;20100;-68
2021/01/13 11:44:26;;;;;;;20.70;7.50;;;2.70;90.90;;;;;;5030845;28;20037;-68
2021/01/13 11:47:11;;;;;;;16.33;8.07;;;2.80;90.80;;;;;;5030445;28;20052;-70
2021/01/13 11:49:47;;;;;;;17.65;9.18;;;2.80;90.70;;;;;;5028512;28;20034;-68
2021/01/13 11:52:16;;;;;;;15.30;7.60;;;2.80;90.70;;;;;;5029974;28;20482;-68
2021/01/13 11:54:50;;;;;;;20.15;7.85;;;2.80;90.60;;;;;;5029390;28;20026;-69
2021/01/13 11:57:23;;;;;;;13.93;6.57;;;2.80;90.70;;;;;;5061444;22;20139;-90
2021/01/13 11:59:51;;;;;;;50.85;22.45;;;2.80;90.70;;;;;;5053670;28;20028;-90
2021/01/13 12:02:30;;;;;;;12.10;7.82;;;2.80;90.90;;;;;;5055214;28;20131;-91
2021/01/13 12:04:56;;;;;;;17.50;8.45;;;2.90;90.90;;;;;;5052308;28;20108;-90
2021/01/13 12:07:22;;;;;;;21.73;8.65;;;2.90;90.80;;;;;;5053485;28;20178;-90
2021/01/13 12:10:13;;;;;;;12.25;7.25;;;2.80;90.80;;;;;;5051256;28;20045;-90
2021/01/13 12:12:40;;;;;;;25.50;7.95;;;2.90;90.90;;;;;;5055089;28;20029;-89
2021/01/13 12:15:08;;;;;;;16.88;6.13;;;2.80;90.80;;;;;;5046827;28;20028;-90
2021/01/13 12:17:34;;;;;;;15.85;6.82;;;2.90;90.70;;;;;;5054103;28;20036;-91
2021/01/13 12:20:00;;;;;;;14.18;6.10;;;2.90;90.70;;;;;;5058882;28;20036;-90
2021/01/13 12:22:33;;;;;;;11.95;5.88;;;2.90;90.80;;;;;;5059134;28;20033;-91
2021/01/13 12:24:59;;;;;;;13.27;5.50;;;2.90;90.70;;;;;;5056455;28;20035;-89
2021/01/13 12:27:26;;;;;;;12.18;5.40;;;2.90;90.70;;;;;;5057230;28;20486;-90
2021/01/13 12:30:12;;;;;;;11.00;5.25;;;2.90;90.60;;;;;;5064962;28;20033;-91
2021/01/13 12:32:39;;;;;;;13.52;5.13;;;2.80;90.60;;;;;;5056723;28;20116;-92
2021/01/13 12:35:06;;;;;;;17.42;5.88;;;2.80;90.60;;;;;;5040123;28;20029;-91
2021/01/13 12:37:47;;;;;;;16.10;5.60;;;2.80;90.60;;;;;;5054718;28;20029;-91
2021/01/13 12:40:13;;;;;;;14.98;5.28;;;2.80;90.50;;;;;;5053489;28;20025;-90
2021/01/13 12:42:39;;;;;;;12.05;4.72;;;2.80;90.60;;;;;;5052706;28;20098;-92
2021/01/13 12:45:06;;;;;;;17.73;7.47;;;2.80;90.70;;;;;;5060019;28;20135;-92
2021/01/13 12:47:32;;;;;;;15.45;5.70;;;2.80;90.70;;;;;;5053387;28;20119;-92
2021/01/13 12:49:57;;;;;;;16.13;8.10;;;2.80;90.80;;;;;;5049744;28;20053;-93
2021/01/13 12:52:23;;;;;;;19.33;9.43;;;2.90;90.80;;;;;;5047117;28;20239;-92
2021/01/13 12:54:49;;;;;;;13.05;6.10;;;2.90;90.50;;;;;;5055075;28;20013;-92
2021/01/13 12:57:14;;;;;;;14.35;6.18;;;2.90;90.50;;;;;;5055438;28;20501;-92
2021/01/13 12:59:40;;;;;;;17.75;5.63;;;2.90;90.50;;;;;;5056629;28;20032;-92
2021/01/13 13:02:07;;;;;;;14.82;4.57;;;2.90;90.50;;;;;;5055394;28;20021;-91
2021/01/13 13:04:32;;;;;;;8.43;5.32;;;2.90;90.50;;;;;;5049329;28;20033;-93
2021/01/13 13:06:58;;;;;;;15.35;4.88;;;2.90;90.60;;;;;;5057742;28;20029;-93
2021/01/13 13:09:23;;;;;;;8.38;4.53;;;2.90;90.70;;;;;;5056888;28;20029;-91
2021/01/13 13:11:51;;;;;;;14.50;5.63;;;3.00;90.70;;;;;;5056113;28;20028;-92